createdAt,value
2023-01-04T00:00:13.051Z,7.73
2023-01-04T00:02:42.437Z,7.77
2023-01-04T00:05:10.928Z,8.77
2023-01-04T00:07:38.857Z,8.17
2023-01-04T00:10:07.186Z,7.60
2023-01-04T00:12:36.700Z,6.10
2023-01-04T00:15:05.114Z,6.90
2023-01-04T00:17:33.342Z,7.00
2023-01-04T00:20:02.738Z,8.63
2023-01-04T00:22:34.777Z,8.80
2023-01-04T00:25:02.916Z,5.80
2023-01-04T00:27:30.826Z,6.83
2023-01-04T00:29:58.744Z,8.77
2023-01-04T00:32:26.704Z,5.83
2023-01-04T00:34:54.639Z,8.03
2023-01-04T00:37:24.422Z,8.17
2023-01-04T00:39:52.359Z,6.07
2023-01-04T00:42:20.368Z,5.80
2023-01-04T00:44:48.343Z,7.63
2023-01-04T00:47:16.239Z,6.70
2023-01-04T00:49:44.265Z,7.60
2023-01-04T00:52:12.404Z,6.20
2023-01-04T00:54:41.738Z,4.83
2023-01-04T00:57:09.629Z,3.23
2023-01-04T00:59:37.539Z,5.73
2023-01-04T01:02:05.605Z,4.57
2023-01-04T01:04:33.705Z,5.13
2023-01-04T01:07:01.611Z,4.50
2023-01-04T01:09:29.535Z,5.10
2023-01-04T01:11:58.901Z,4.53
2023-01-04T01:14:27.034Z,3.60
2023-01-04T01:16:58.526Z,2.93
2023-01-04T01:19:27.813Z,3.43
2023-01-04T01:21:57.273Z,4.40
2023-01-04T01:24:25.373Z,5.17
2023-01-04T01:26:53.628Z,5.07
2023-01-04T01:29:23.000Z,4.50
2023-01-04T01:31:51.162Z,4.57
2023-01-04T01:34:19.226Z,4.50
2023-01-04T01:36:47.273Z,3.83
2023-01-04T01:39:15.210Z,4.23
2023-01-04T01:41:43.431Z,4.90
2023-01-04T01:44:53.147Z,5.00
2023-01-04T01:47:26.370Z,4.83
2023-01-04T01:49:55.379Z,3.53
2023-01-04T01:52:27.973Z,2.93
2023-01-04T01:55:00.222Z,4.83
2023-01-04T01:57:32.318Z,4.97
2023-01-04T02:00:05.310Z,4.30
2023-01-04T02:02:35.105Z,4.97
2023-01-04T02:05:04.165Z,5.23
2023-01-04T02:07:32.733Z,5.40
2023-01-04T02:10:01.264Z,4.60
2023-01-04T02:12:29.408Z,4.93
2023-01-04T02:14:57.402Z,4.20
2023-01-04T02:17:39.902Z,4.53
2023-01-04T02:20:24.086Z,4.30
2023-01-04T02:23:37.164Z,4.57
2023-01-04T02:26:41.573Z,4.63
2023-01-04T02:29:44.599Z,4.17
2023-01-04T02:32:25.583Z,5.53
2023-01-04T02:35:01.405Z,3.33
2023-01-04T02:37:40.165Z,3.53
2023-01-04T02:40:18.486Z,3.57
2023-01-04T02:43:15.873Z,3.53
2023-01-04T02:45:49.781Z,3.00
2023-01-04T02:48:36.970Z,1.90
2023-01-04T02:51:05.112Z,2.60
2023-01-04T02:53:38.997Z,3.37
2023-01-04T02:56:16.746Z,2.90
2023-01-04T02:59:10.973Z,4.57
2023-01-04T03:02:06.779Z,4.40
2023-01-04T03:05:16.030Z,3.40
2023-01-04T03:07:53.587Z,4.07
2023-01-04T03:10:27.404Z,3.87
2023-01-04T03:13:02.668Z,2.70
2023-01-04T03:15:35.547Z,4.23
2023-01-04T03:18:11.424Z,4.03
2023-01-04T03:20:40.843Z,5.03
2023-01-04T03:23:37.209Z,3.77
2023-01-04T03:26:28.760Z,4.80
2023-01-04T03:29:17.159Z,4.17
2023-01-04T03:32:06.875Z,3.20
2023-01-04T03:34:52.748Z,4.10
2023-01-04T03:37:27.128Z,2.80
2023-01-04T03:40:22.776Z,2.47
2023-01-04T03:43:14.905Z,1.67
2023-01-04T03:46:05.445Z,2.23
2023-01-04T03:48:42.344Z,1.80
2023-01-04T03:51:16.799Z,2.10
2023-01-04T03:53:56.379Z,1.63
2023-01-04T03:56:26.468Z,2.43
2023-01-04T03:58:55.896Z,2.00
2023-01-04T04:01:26.817Z,2.47
2023-01-04T04:04:12.319Z,3.10
2023-01-04T04:06:57.850Z,2.03
2023-01-04T04:09:28.405Z,2.07
2023-01-04T04:11:56.609Z,3.20
2023-01-04T04:14:24.599Z,3.13
2023-01-04T04:16:52.823Z,3.10
2023-01-04T04:19:22.152Z,2.90
2023-01-04T04:21:50.055Z,3.10
2023-01-04T04:24:20.256Z,3.40
2023-01-04T04:26:50.458Z,4.83
2023-01-04T04:29:20.822Z,3.47
2023-01-04T04:31:51.925Z,3.53
2023-01-04T04:34:20.171Z,4.47
2023-01-04T04:36:48.137Z,3.60
2023-01-04T04:39:16.230Z,4.63
2023-01-04T04:41:43.134Z,3.63
2023-01-04T04:44:14.561Z,4.07
2023-01-04T04:46:46.182Z,4.00
2023-01-04T04:49:14.902Z,4.67
2023-01-04T04:51:44.153Z,4.60
2023-01-04T04:54:17.249Z,4.10
2023-01-04T04:56:45.227Z,6.27
2023-01-04T04:59:14.660Z,4.90
2023-01-04T05:01:42.667Z,5.47
2023-01-04T05:04:16.521Z,4.57
2023-01-04T05:06:44.745Z,6.03
2023-01-04T05:09:13.133Z,6.90
2023-01-04T05:12:03.899Z,4.87
2023-01-04T05:14:33.389Z,5.03
2023-01-04T05:17:01.429Z,5.83
2023-01-04T05:19:29.552Z,7.83
2023-01-04T05:21:57.597Z,5.30
2023-01-04T05:24:25.683Z,4.20
2023-01-04T05:26:53.723Z,5.50
2023-01-04T05:29:39.149Z,5.57
2023-01-04T05:32:08.705Z,6.87
2023-01-04T05:34:36.685Z,5.30
2023-01-04T05:37:04.556Z,7.17
2023-01-04T05:39:32.603Z,8.00
2023-01-04T05:42:18.211Z,7.77
2023-01-04T05:44:46.396Z,7.53
2023-01-04T05:47:15.713Z,7.57
2023-01-04T05:49:44.310Z,8.20
2023-01-04T05:52:12.525Z,6.63
2023-01-04T05:54:40.476Z,5.40
2023-01-04T05:57:08.678Z,6.33
2023-01-04T05:59:41.555Z,5.53
2023-01-04T06:02:17.265Z,7.80
2023-01-04T06:04:45.556Z,4.73
2023-01-04T06:07:13.471Z,8.57
2023-01-04T06:09:41.617Z,4.67
2023-01-04T06:12:10.351Z,7.90
2023-01-04T06:14:38.545Z,8.07
2023-01-04T06:17:06.979Z,8.20
2023-01-04T06:19:37.020Z,7.17
2023-01-04T06:22:05.080Z,6.47
2023-01-04T06:24:34.181Z,6.47
2023-01-04T06:27:02.549Z,6.73
2023-01-04T06:29:30.747Z,7.23
2023-01-04T06:31:58.868Z,6.60
2023-01-04T06:34:30.933Z,6.27
2023-01-04T06:37:01.299Z,7.97
2023-01-04T06:39:29.493Z,6.20
2023-01-04T06:42:05.397Z,6.83
2023-01-04T06:44:34.776Z,7.83
2023-01-04T06:47:02.883Z,4.77
2023-01-04T06:49:30.873Z,7.37
2023-01-04T06:52:00.394Z,5.80
2023-01-04T06:54:28.323Z,6.37
2023-01-04T06:56:56.346Z,7.23
2023-01-04T06:59:24.333Z,6.40
2023-01-04T07:01:52.598Z,8.87
2023-01-04T07:04:20.889Z,6.77
2023-01-04T07:06:48.929Z,6.00
2023-01-04T07:09:18.677Z,6.27
2023-01-04T07:11:46.906Z,7.50
2023-01-04T07:14:15.067Z,8.10
2023-01-04T07:16:43.344Z,6.83
2023-01-04T07:19:11.411Z,7.73
2023-01-04T07:21:39.414Z,6.30
2023-01-04T07:24:07.556Z,6.17
2023-01-04T07:26:37.767Z,8.03
2023-01-04T07:29:18.299Z,7.00
2023-01-04T07:31:48.791Z,7.33
2023-01-04T07:34:18.473Z,7.73
2023-01-04T07:36:47.607Z,7.70
2023-01-04T07:39:16.018Z,5.87
2023-01-04T07:41:46.234Z,8.70
2023-01-04T07:44:14.368Z,5.83
2023-01-04T07:46:43.832Z,8.13
2023-01-04T07:49:17.385Z,8.00
2023-01-04T07:51:46.619Z,6.77
2023-01-04T07:54:15.094Z,7.57
2023-01-04T07:56:43.190Z,8.80
2023-01-04T07:59:14.236Z,6.27
2023-01-04T08:01:42.619Z,6.97
2023-01-04T08:04:12.127Z,8.47
2023-01-04T08:06:40.936Z,6.87
2023-01-04T08:09:09.164Z,8.67
2023-01-04T08:11:37.244Z,8.07
2023-01-04T08:14:05.353Z,7.23
2023-01-04T08:16:36.816Z,5.83
2023-01-04T08:19:06.886Z,8.17
2023-01-04T08:21:36.982Z,7.13
2023-01-04T08:24:05.858Z,7.10
2023-01-04T08:26:34.109Z,6.87
2023-01-04T08:29:02.237Z,8.10
2023-01-04T08:31:31.811Z,9.77
2023-01-04T08:34:04.769Z,9.40
2023-01-04T08:36:34.328Z,10.50
2023-01-04T08:39:06.311Z,8.93
2023-01-04T08:44:38.583Z,6.50
2023-01-04T08:47:06.889Z,9.03
2023-01-04T08:49:36.211Z,7.10
2023-01-04T08:52:04.505Z,9.20
2023-01-04T08:54:32.498Z,6.83
2023-01-04T08:57:00.587Z,7.50
2023-01-04T08:59:28.718Z,8.00
2023-01-04T09:02:04.525Z,8.23
2023-01-04T09:04:33.651Z,6.43
2023-01-04T09:07:03.110Z,6.80
2023-01-04T09:09:31.333Z,9.77
2023-01-04T09:11:59.852Z,7.60
2023-01-04T09:14:27.951Z,8.93
2023-01-04T09:16:56.240Z,9.43
2023-01-04T09:19:24.327Z,11.17
2023-01-04T09:21:52.500Z,8.27
2023-01-04T09:24:21.976Z,9.83
2023-01-04T09:26:49.897Z,6.33
2023-01-04T09:29:18.008Z,7.20
2023-01-04T09:31:46.041Z,9.73
2023-01-04T09:34:16.477Z,9.40
2023-01-04T09:36:45.343Z,7.23
2023-01-04T09:39:21.147Z,8.37
2023-01-04T09:41:57.275Z,7.67
2023-01-04T09:45:03.052Z,10.17
2023-01-04T09:47:29.752Z,9.63
2023-01-04T09:50:01.322Z,9.33
2023-01-04T09:52:42.780Z,8.67
2023-01-04T09:55:37.008Z,9.03
2023-01-04T09:58:15.371Z,9.83
2023-01-04T10:00:46.731Z,9.70
2023-01-04T10:03:19.946Z,9.13
2023-01-04T10:05:48.155Z,11.23
2023-01-04T10:08:18.599Z,8.33
2023-01-04T10:10:55.419Z,6.13
2023-01-04T10:13:53.243Z,6.87
2023-01-04T10:17:10.910Z,8.07
2023-01-04T10:22:33.141Z,8.27
2023-01-04T10:25:19.089Z,5.00
2023-01-04T10:27:54.566Z,7.90
2023-01-04T10:30:31.775Z,8.53
2023-01-04T10:33:09.087Z,9.17
2023-01-04T10:35:41.503Z,7.63
2023-01-04T10:38:18.054Z,4.80
2023-01-04T10:40:48.639Z,8.80
2023-01-04T10:43:23.126Z,8.10
2023-01-04T10:45:59.481Z,7.97
2023-01-04T10:48:38.655Z,7.37
2023-01-04T10:51:10.580Z,7.87
2023-01-04T10:53:45.505Z,5.90
2023-01-04T10:56:24.082Z,6.90
2023-01-04T10:59:00.696Z,7.30
2023-01-04T11:01:36.322Z,8.07
2023-01-04T11:04:10.499Z,8.80
2023-01-04T11:06:45.946Z,6.83
2023-01-04T11:09:24.717Z,7.33
2023-01-04T11:11:56.573Z,6.87
2023-01-04T11:14:25.931Z,7.00
2023-01-04T11:17:00.117Z,7.33
2023-01-04T11:19:29.179Z,5.47
2023-01-04T11:22:02.265Z,6.73
2023-01-04T11:24:33.505Z,9.00
2023-01-04T11:27:06.662Z,7.43
2023-01-04T11:29:42.397Z,10.03
2023-01-04T11:32:22.431Z,7.53
2023-01-04T11:34:53.562Z,8.10
2023-01-04T11:37:30.644Z,6.43
2023-01-04T11:40:22.103Z,7.33
2023-01-04T11:42:51.812Z,6.83
2023-01-04T11:45:23.785Z,8.27
2023-01-04T11:47:55.652Z,9.63
2023-01-04T11:50:42.694Z,8.77
2023-01-04T11:53:32.540Z,8.30
2023-01-04T11:56:16.707Z,10.77
2023-01-04T11:58:46.904Z,8.03
2023-01-04T12:01:23.920Z,6.30
2023-01-04T12:03:53.433Z,9.33
2023-01-04T12:06:26.271Z,9.03
2023-01-04T12:08:54.569Z,10.50
2023-01-04T12:11:30.505Z,6.60
2023-01-04T12:14:00.705Z,7.37
2023-01-04T12:16:43.954Z,6.57
2023-01-04T12:19:16.917Z,9.17
2023-01-04T12:21:48.810Z,8.03
2023-01-04T12:24:20.152Z,9.00
2023-01-04T12:26:49.068Z,8.43
2023-01-04T12:29:44.195Z,8.53
2023-01-04T12:32:41.680Z,7.40
2023-01-04T12:35:46.831Z,7.80
2023-01-04T12:38:55.001Z,8.53
2023-01-04T12:41:24.230Z,9.70
2023-01-04T12:43:53.375Z,8.77
2023-01-04T12:47:01.459Z,10.53
2023-01-04T12:49:52.715Z,7.90
2023-01-04T12:53:19.929Z,6.83
2023-01-04T12:56:00.669Z,8.60
2023-01-04T12:59:24.793Z,8.07
2023-01-04T13:02:18.924Z,9.87
2023-01-04T13:04:47.349Z,6.57
2023-01-04T13:07:20.826Z,7.73
2023-01-04T13:09:54.401Z,9.87
2023-01-04T13:12:43.070Z,9.53
2023-01-04T13:15:22.722Z,8.40
2023-01-04T13:17:51.975Z,9.23
2023-01-04T13:20:23.624Z,7.33
2023-01-04T13:22:54.668Z,9.40
2023-01-04T13:25:24.745Z,7.70
2023-01-04T13:28:02.440Z,10.13
2023-01-04T13:30:32.811Z,7.70
2023-01-04T13:33:25.840Z,8.73
2023-01-04T13:36:03.185Z,8.40
2023-01-04T13:38:32.937Z,9.80
2023-01-04T13:41:00.946Z,9.30
2023-01-04T13:43:54.359Z,6.63
2023-01-04T13:46:24.421Z,7.87
2023-01-04T13:48:55.713Z,8.53
2023-01-04T13:51:35.834Z,8.00
2023-01-04T13:54:06.930Z,9.20
2023-01-04T13:56:36.351Z,8.67
2023-01-04T13:59:06.005Z,7.17
2023-01-04T14:01:37.685Z,10.00
2023-01-04T14:04:08.343Z,8.03
2023-01-04T14:06:42.688Z,7.93
2023-01-04T14:09:16.885Z,7.70
2023-01-04T14:12:08.610Z,9.60
2023-01-04T14:14:41.253Z,6.63
2023-01-04T14:17:22.165Z,8.97
2023-01-04T14:19:54.359Z,8.47
2023-01-04T14:22:34.538Z,10.03
2023-01-04T14:25:23.290Z,9.67
2023-01-04T14:27:52.245Z,10.50
2023-01-04T14:30:28.187Z,9.57
2023-01-04T14:32:58.125Z,8.70
2023-01-04T14:35:27.914Z,6.37
2023-01-04T14:37:57.375Z,7.63
2023-01-04T14:40:27.357Z,8.53
2023-01-04T14:42:55.969Z,8.10
2023-01-04T14:45:27.245Z,10.00
2023-01-04T14:47:55.368Z,8.40
2023-01-04T14:50:23.513Z,6.27
2023-01-04T14:52:52.499Z,10.30
2023-01-04T14:55:20.817Z,9.93
2023-01-04T14:57:48.726Z,8.57
2023-01-04T15:00:20.160Z,10.53
2023-01-04T15:02:52.034Z,8.53
2023-01-04T15:05:20.784Z,9.53
2023-01-04T15:07:49.273Z,10.63
2023-01-04T15:10:23.031Z,8.07
2023-01-04T15:12:51.452Z,9.83
2023-01-04T15:15:19.740Z,11.03
2023-01-04T15:17:49.545Z,7.87
2023-01-04T15:20:17.688Z,9.23
2023-01-04T15:22:45.920Z,6.83
2023-01-04T15:25:14.046Z,8.33
2023-01-04T15:27:43.017Z,8.77
2023-01-04T15:30:13.052Z,7.40
2023-01-04T15:32:41.438Z,8.93
2023-01-04T15:35:11.428Z,11.67
2023-01-04T15:37:39.859Z,7.20
2023-01-04T15:40:08.857Z,11.23
2023-01-04T15:42:55.528Z,8.00
2023-01-04T15:45:24.229Z,5.73
2023-01-04T15:47:54.836Z,9.77
2023-01-04T15:50:24.515Z,9.30
2023-01-04T15:52:52.480Z,9.27
2023-01-04T15:55:20.495Z,10.70
2023-01-04T15:57:48.512Z,10.97
2023-01-04T16:00:17.534Z,6.90
2023-01-04T16:02:45.712Z,10.47
2023-01-04T16:05:15.809Z,10.57
2023-01-04T16:07:45.829Z,10.07
2023-01-04T16:10:14.001Z,8.80
2023-01-04T16:12:45.981Z,8.87
2023-01-04T16:15:17.717Z,8.53
2023-01-04T16:17:46.705Z,8.90
2023-01-04T16:20:17.036Z,6.50
2023-01-04T16:22:49.367Z,8.83
2023-01-04T16:25:18.855Z,7.93
2023-01-04T16:27:46.831Z,11.30
2023-01-04T16:30:24.473Z,9.03
2023-01-04T16:33:09.695Z,10.07
2023-01-04T16:35:37.980Z,9.33
2023-01-04T16:38:07.739Z,9.33
2023-01-04T16:40:35.954Z,11.07
2023-01-04T16:43:04.143Z,9.30
2023-01-04T16:45:32.163Z,9.17
2023-01-04T16:48:01.367Z,10.07
2023-01-04T16:50:29.858Z,10.53
2023-01-04T16:52:57.844Z,9.83
2023-01-04T16:55:28.036Z,11.53
2023-01-04T16:57:56.268Z,9.03
2023-01-04T17:00:25.258Z,8.23
2023-01-04T17:02:53.398Z,7.83
2023-01-04T17:05:21.655Z,9.83
2023-01-04T17:07:49.591Z,10.20
2023-01-04T17:10:17.688Z,10.63
2023-01-04T17:12:48.534Z,10.90
2023-01-04T17:18:06.263Z,8.73
2023-01-04T17:20:34.334Z,9.83
2023-01-04T17:23:02.350Z,10.83
2023-01-04T17:25:30.794Z,10.57
2023-01-04T17:28:00.395Z,8.70
2023-01-04T17:30:28.580Z,11.20
2023-01-04T17:32:56.764Z,11.10
2023-01-04T17:35:24.826Z,10.43
2023-01-04T17:37:52.894Z,10.13
2023-01-04T17:40:23.415Z,9.63
2023-01-04T17:42:51.821Z,10.77
2023-01-04T17:45:21.681Z,10.20
2023-01-04T17:47:49.809Z,10.30
2023-01-04T17:50:18.310Z,8.57
2023-01-04T17:52:46.711Z,9.23
2023-01-04T17:55:15.152Z,10.90
2023-01-04T18:00:14.717Z,7.87
2023-01-04T18:02:44.743Z,9.93
2023-01-04T18:05:12.844Z,11.93
2023-01-04T18:07:41.055Z,11.13
2023-01-04T18:10:21.427Z,10.50
2023-01-04T18:13:01.261Z,8.70
2023-01-04T18:15:29.386Z,11.60
2023-01-04T18:17:59.048Z,9.87
2023-01-04T18:20:27.595Z,6.30
2023-01-04T18:22:56.170Z,9.43
2023-01-04T18:25:24.856Z,11.23
2023-01-04T18:27:53.953Z,9.67
2023-01-04T18:30:22.257Z,10.10
2023-01-04T18:32:50.492Z,9.87
2023-01-04T18:35:20.174Z,10.23
2023-01-04T18:37:48.169Z,9.27
2023-01-04T18:40:16.738Z,11.03
2023-01-04T18:42:49.651Z,9.17
2023-01-04T18:45:18.210Z,10.43
2023-01-04T18:47:47.595Z,10.40
2023-01-04T18:50:16.865Z,10.80
2023-01-04T18:52:46.356Z,10.43
2023-01-04T18:55:14.479Z,9.63
2023-01-04T18:57:42.640Z,9.87
2023-01-04T19:00:20.614Z,11.77
2023-01-04T19:02:48.696Z,9.83
2023-01-04T19:05:19.037Z,10.43
2023-01-04T19:07:50.431Z,11.00
2023-01-04T19:10:18.892Z,10.93
2023-01-04T19:15:30.139Z,9.90
2023-01-04T19:17:58.369Z,10.00
2023-01-04T19:20:28.490Z,11.27
2023-01-04T19:22:57.938Z,9.33
2023-01-04T19:25:28.472Z,11.03
2023-01-04T19:27:58.373Z,7.83
2023-01-04T19:30:26.424Z,9.23
2023-01-04T19:32:54.614Z,7.03
2023-01-04T19:35:22.674Z,10.40
2023-01-04T19:37:50.939Z,7.83
2023-01-04T19:40:20.686Z,10.03
2023-01-04T19:42:50.102Z,9.87
2023-01-04T19:45:22.669Z,8.47
2023-01-04T19:47:51.519Z,9.80
2023-01-04T19:50:20.096Z,9.47
2023-01-04T19:52:48.260Z,9.13
2023-01-04T19:55:16.785Z,9.40
2023-01-04T19:57:46.406Z,8.87
2023-01-04T20:00:16.893Z,9.73
2023-01-04T20:02:45.071Z,8.93
2023-01-04T20:05:13.328Z,10.23
2023-01-04T20:07:41.430Z,10.33
2023-01-04T20:10:14.290Z,9.63
2023-01-04T20:12:43.094Z,9.50
2023-01-04T20:15:14.606Z,8.13
2023-01-04T20:17:42.831Z,10.30
2023-01-04T20:20:11.325Z,9.23
2023-01-04T20:22:39.537Z,8.43
2023-01-04T20:25:08.902Z,10.67
2023-01-04T20:27:37.235Z,12.80
2023-01-04T20:30:06.761Z,7.50
2023-01-04T20:32:38.900Z,9.27
2023-01-04T20:35:08.114Z,8.73
2023-01-04T20:37:36.209Z,8.03
2023-01-04T20:40:04.619Z,10.03
2023-01-04T20:42:50.568Z,8.23
2023-01-04T20:45:18.896Z,10.60
2023-01-04T20:47:48.392Z,9.03
2023-01-04T20:50:17.364Z,7.67
2023-01-04T20:52:45.993Z,8.33
2023-01-04T20:55:17.573Z,7.10
2023-01-04T20:57:45.892Z,10.07
2023-01-04T21:00:15.574Z,7.43
2023-01-04T21:02:44.149Z,9.63
2023-01-04T21:05:14.379Z,6.63
2023-01-04T21:07:42.905Z,8.57
2023-01-04T21:10:13.892Z,9.63
2023-01-04T21:12:42.408Z,10.97
2023-01-04T21:15:12.715Z,8.33
2023-01-04T21:17:51.441Z,9.63
2023-01-04T21:20:24.734Z,8.80
2023-01-04T21:22:56.886Z,7.20
2023-01-04T21:25:29.565Z,8.17
2023-01-04T21:28:00.844Z,5.73
2023-01-04T21:30:32.020Z,5.97
2023-01-04T21:33:02.040Z,8.63
2023-01-04T21:35:32.624Z,7.83
2023-01-04T21:38:03.995Z,8.10
2023-01-04T21:40:33.228Z,10.00
2023-01-04T21:43:07.851Z,9.70
2023-01-04T21:45:40.807Z,6.63
2023-01-04T21:48:12.996Z,9.83
2023-01-04T21:50:43.341Z,8.27
2023-01-04T21:53:11.653Z,9.73
2023-01-04T21:55:42.182Z,9.40
2023-01-04T21:58:10.328Z,9.70
2023-01-04T22:00:40.821Z,8.40
2023-01-04T22:03:09.276Z,7.43
2023-01-04T22:05:38.297Z,7.23
2023-01-04T22:08:08.720Z,8.50
2023-01-04T22:10:37.128Z,9.87
2023-01-04T22:13:05.187Z,6.33
2023-01-04T22:15:33.475Z,10.00
2023-01-04T22:18:02.027Z,8.13
2023-01-04T22:20:32.786Z,6.93
2023-01-04T22:23:01.708Z,10.63
2023-01-04T22:25:31.241Z,9.87
2023-01-04T22:28:13.615Z,8.47
2023-01-04T22:30:42.892Z,9.67
2023-01-04T22:33:11.053Z,8.33
2023-01-04T22:35:40.374Z,11.33
2023-01-04T22:38:08.791Z,9.10
2023-01-04T22:40:42.119Z,10.43
2023-01-04T22:43:10.837Z,7.20
2023-01-04T22:45:39.202Z,6.97
2023-01-04T22:48:08.305Z,7.90
2023-01-04T22:50:43.024Z,7.60
2023-01-04T22:53:11.344Z,8.27
2023-01-04T22:58:31.176Z,9.00
2023-01-04T23:01:00.526Z,6.80
2023-01-04T23:03:28.710Z,8.97
2023-01-04T23:05:57.622Z,9.57
2023-01-04T23:08:26.615Z,8.20
2023-01-04T23:10:56.378Z,7.87
2023-01-04T23:13:25.054Z,5.93
2023-01-04T23:15:53.555Z,10.10
2023-01-04T23:18:21.646Z,9.57
2023-01-04T23:20:54.546Z,7.80
2023-01-04T23:23:22.820Z,9.67
2023-01-04T23:25:51.310Z,8.77
2023-01-04T23:28:23.617Z,8.43
2023-01-04T23:30:51.893Z,8.63
2023-01-04T23:33:20.163Z,9.57
2023-01-04T23:35:48.539Z,9.30
2023-01-04T23:38:16.773Z,6.87
2023-01-04T23:40:48.886Z,8.67
2023-01-04T23:43:16.889Z,9.47
2023-01-04T23:45:46.347Z,9.87
2023-01-04T23:48:14.826Z,6.73
2023-01-04T23:50:43.366Z,8.33
2023-01-04T23:53:12.852Z,8.37
2023-01-04T23:55:42.898Z,7.80
2023-01-04T23:58:11.106Z,9.10
